createdAt,value
2018-02-05T00:00:41.331Z,63.87
2018-02-05T00:03:08.847Z,71.00
2018-02-05T00:05:36.378Z,72.67
2018-02-05T00:08:03.914Z,72.57
2018-02-05T00:10:31.475Z,67.70
2018-02-05T00:12:58.996Z,68.60
2018-02-05T00:15:26.525Z,64.70
2018-02-05T00:17:54.046Z,67.27
2018-02-05T00:20:21.562Z,67.37
2018-02-05T00:22:49.160Z,71.07
2018-02-05T00:25:16.691Z,70.07
2018-02-05T00:27:44.289Z,70.77
2018-02-05T00:30:11.818Z,70.80
2018-02-05T00:32:39.368Z,72.60
2018-02-05T00:35:06.898Z,68.27
2018-02-05T00:37:34.417Z,62.40
2018-02-05T00:40:01.976Z,69.63
2018-02-05T00:42:29.496Z,69.57
2018-02-05T00:44:57.092Z,72.13
2018-02-05T00:47:24.602Z,63.63
2018-02-05T00:49:52.138Z,65.40
2018-02-05T00:52:19.653Z,64.73
2018-02-05T00:54:47.181Z,62.00
2018-02-05T00:57:14.724Z,67.13
2018-02-05T00:59:42.261Z,67.77
2018-02-05T01:02:09.776Z,61.93
2018-02-05T01:04:37.310Z,61.87
2018-02-05T01:07:04.812Z,64.63
2018-02-05T01:09:32.328Z,65.10
2018-02-05T01:11:59.845Z,63.17
2018-02-05T01:14:27.374Z,65.90
2018-02-05T01:16:54.892Z,69.03
2018-02-05T01:19:22.524Z,58.27
2018-02-05T01:21:50.037Z,63.27
2018-02-05T01:24:17.554Z,64.37
2018-02-05T01:26:45.079Z,64.17
2018-02-05T01:29:12.613Z,67.50
2018-02-05T01:31:40.124Z,65.80
2018-02-05T01:34:07.649Z,69.27
2018-02-05T01:36:35.181Z,61.87
2018-02-05T01:39:02.712Z,65.73
2018-02-05T01:41:30.248Z,60.90
2018-02-05T01:43:57.768Z,66.20
2018-02-05T01:46:25.288Z,58.43
2018-02-05T01:48:52.807Z,57.20
2018-02-05T01:51:20.381Z,67.40
2018-02-05T01:53:47.921Z,61.43
2018-02-05T01:56:15.431Z,60.83
2018-02-05T01:58:42.956Z,60.17
2018-02-05T02:01:10.477Z,58.83
2018-02-05T02:03:37.993Z,58.63
2018-02-05T02:06:05.510Z,57.87
2018-02-05T02:08:33.092Z,56.73
2018-02-05T02:11:00.684Z,59.53
2018-02-05T02:13:28.237Z,55.40
2018-02-05T02:15:55.751Z,59.87
2018-02-05T02:18:23.303Z,53.30
2018-02-05T02:20:50.929Z,63.13
2018-02-05T02:23:18.448Z,56.83
2018-02-05T02:25:46.037Z,59.40
2018-02-05T02:28:13.569Z,51.07
2018-02-05T02:30:41.134Z,53.23
2018-02-05T02:33:08.693Z,58.67
2018-02-05T02:35:36.227Z,56.70
2018-02-05T02:38:03.780Z,53.13
2018-02-05T02:40:31.296Z,60.67
2018-02-05T02:42:58.808Z,58.13
2018-02-05T02:45:26.328Z,59.17
2018-02-05T02:47:53.858Z,54.67
2018-02-05T02:50:21.374Z,56.03
2018-02-05T02:52:48.906Z,58.17
2018-02-05T02:55:16.433Z,55.47
2018-02-05T02:57:44.017Z,51.67
2018-02-05T03:00:11.555Z,50.83
2018-02-05T03:02:39.105Z,55.03
2018-02-05T03:05:06.632Z,50.40
2018-02-05T03:07:34.161Z,51.27
2018-02-05T03:10:01.721Z,54.33
2018-02-05T03:12:29.237Z,50.03
2018-02-05T03:14:56.753Z,50.27
2018-02-05T03:17:24.272Z,54.90
2018-02-05T03:19:51.786Z,48.70
2018-02-05T03:22:19.306Z,47.47
2018-02-05T03:24:46.836Z,46.57
2018-02-05T03:27:14.352Z,47.63
2018-02-05T03:29:41.867Z,44.73
2018-02-05T03:32:09.450Z,45.57
2018-02-05T03:34:36.969Z,43.50
2018-02-05T03:37:04.493Z,40.93
2018-02-05T03:39:32.130Z,45.00
2018-02-05T03:41:59.641Z,46.83
2018-02-05T03:44:27.158Z,43.43
2018-02-05T03:46:54.707Z,41.40
2018-02-05T03:49:22.224Z,45.60
2018-02-05T03:51:49.741Z,40.30
2018-02-05T03:54:17.259Z,39.77
2018-02-05T03:56:44.769Z,43.00
2018-02-05T03:59:12.303Z,45.40
2018-02-05T04:01:39.832Z,39.30
2018-02-05T04:04:07.392Z,41.80
2018-02-05T04:06:40.576Z,37.83
2018-02-05T04:09:08.105Z,38.70
2018-02-05T04:11:35.626Z,41.43
2018-02-05T04:14:03.150Z,42.57
2018-02-05T04:16:30.685Z,39.87
2018-02-05T04:18:58.216Z,41.27
2018-02-05T04:21:25.735Z,38.33
2018-02-05T04:23:53.257Z,40.27
2018-02-05T04:26:20.768Z,36.07
2018-02-05T04:28:48.285Z,37.37
2018-02-05T04:31:15.800Z,41.20
2018-02-05T04:33:43.313Z,40.00
2018-02-05T04:36:10.830Z,41.23
2018-02-05T04:38:38.347Z,37.83
2018-02-05T04:41:05.870Z,37.93
2018-02-05T04:43:33.401Z,35.03
2018-02-05T04:46:00.952Z,34.17
2018-02-05T04:48:28.466Z,37.27
2018-02-05T04:50:56.036Z,36.87
2018-02-05T04:53:23.603Z,37.60
2018-02-05T04:55:51.165Z,33.47
2018-02-05T04:58:18.681Z,32.37
2018-02-05T05:00:46.200Z,36.00
2018-02-05T05:03:13.764Z,36.63
2018-02-05T05:05:41.284Z,34.03
2018-02-05T05:08:08.792Z,29.70
2018-02-05T05:10:36.306Z,35.77
2018-02-05T05:13:03.821Z,34.53
2018-02-05T05:15:31.332Z,32.67
2018-02-05T05:17:58.868Z,32.60
2018-02-05T05:20:26.385Z,34.20
2018-02-05T05:22:53.900Z,29.73
2018-02-05T05:25:21.417Z,33.40
2018-02-05T05:27:48.936Z,33.77
2018-02-05T05:30:16.445Z,33.47
2018-02-05T05:32:43.973Z,31.80
2018-02-05T05:35:11.488Z,32.20
2018-02-05T05:37:39.011Z,33.27
2018-02-05T05:40:06.534Z,32.57
2018-02-05T05:42:34.065Z,32.93
2018-02-05T05:45:01.589Z,29.93
2018-02-05T05:47:29.116Z,32.30
2018-02-05T05:49:56.656Z,31.50
2018-02-05T05:52:24.168Z,28.80
2018-02-05T05:54:51.682Z,30.20
2018-02-05T05:57:19.211Z,31.77
2018-02-05T05:59:46.728Z,28.67
2018-02-05T06:02:14.237Z,28.03
2018-02-05T06:04:41.749Z,31.73
2018-02-05T06:07:09.267Z,27.70
2018-02-05T06:09:36.784Z,27.17
2018-02-05T06:12:04.313Z,27.90
2018-02-05T06:14:31.831Z,28.77
2018-02-05T06:16:59.344Z,30.47
2018-02-05T06:19:26.861Z,26.33
2018-02-05T06:21:54.390Z,27.03
2018-02-05T06:24:21.906Z,22.47
2018-02-05T06:26:49.424Z,28.93
2018-02-05T06:29:16.949Z,23.23
2018-02-05T06:31:44.468Z,22.40
2018-02-05T06:34:11.997Z,25.93
2018-02-05T06:36:39.521Z,25.90
2018-02-05T06:39:07.049Z,23.93
2018-02-05T06:41:34.572Z,28.30
2018-02-05T06:44:02.110Z,20.57
2018-02-05T06:46:29.681Z,20.17
2018-02-05T06:48:57.199Z,23.67
2018-02-05T06:51:36.520Z,21.37
2018-02-05T06:54:15.960Z,19.67
2018-02-05T06:56:43.485Z,19.90
2018-02-05T06:59:11.009Z,19.50
2018-02-05T07:01:38.553Z,22.67
2018-02-05T07:04:06.107Z,21.43
2018-02-05T07:06:33.642Z,23.63
2018-02-05T07:09:01.165Z,19.13
2018-02-05T07:11:28.684Z,20.43
2018-02-05T07:13:57.045Z,20.63
2018-02-05T07:16:24.557Z,21.57
2018-02-05T07:18:52.079Z,17.20
2018-02-05T07:21:19.610Z,18.27
2018-02-05T07:23:47.160Z,18.50
2018-02-05T07:26:14.677Z,18.83
2018-02-05T07:28:42.192Z,17.00
2018-02-05T07:31:09.721Z,22.33
2018-02-05T07:33:37.236Z,20.50
2018-02-05T07:36:04.766Z,17.77
2018-02-05T07:38:32.290Z,19.53
2018-02-05T07:40:59.809Z,16.33
2018-02-05T07:43:27.336Z,20.40
2018-02-05T07:45:54.857Z,13.83
2018-02-05T07:48:22.364Z,17.70
2018-02-05T07:50:49.875Z,18.37
2018-02-05T07:53:17.380Z,15.00
2018-02-05T07:55:44.908Z,17.90
2018-02-05T07:58:12.438Z,17.27
2018-02-05T08:00:39.987Z,18.57
2018-02-05T08:03:07.511Z,16.37
2018-02-05T08:05:35.029Z,14.40
2018-02-05T08:08:02.616Z,16.53
2018-02-05T08:10:30.118Z,15.20
2018-02-05T08:12:57.647Z,15.70
2018-02-05T08:15:25.160Z,14.73
2018-02-05T08:17:52.664Z,13.30
2018-02-05T08:20:20.167Z,13.40
2018-02-05T08:22:47.681Z,12.17
2018-02-05T08:25:15.198Z,15.60
2018-02-05T08:27:42.709Z,12.13
2018-02-05T08:30:10.234Z,15.83
2018-02-05T08:32:37.747Z,13.57
2018-02-05T08:35:05.272Z,12.77
2018-02-05T08:37:32.781Z,14.33
2018-02-05T08:40:00.293Z,11.20
2018-02-05T08:42:27.802Z,10.27
2018-02-05T08:44:55.366Z,11.97
2018-02-05T08:47:22.868Z,9.30
2018-02-05T08:49:50.379Z,11.60
2018-02-05T08:52:17.893Z,10.50
2018-02-05T08:54:45.409Z,10.87
2018-02-05T08:57:12.926Z,10.77
2018-02-05T08:59:40.444Z,14.13
2018-02-05T09:02:07.970Z,11.23
2018-02-05T09:04:35.492Z,11.30
2018-02-05T09:07:03.016Z,9.93
2018-02-05T09:09:30.544Z,12.43
2018-02-05T09:11:58.052Z,10.10
2018-02-05T09:14:25.562Z,20.97
2018-02-05T09:16:53.085Z,8.77
2018-02-05T09:19:20.606Z,11.60
2018-02-05T09:21:48.108Z,9.70
2018-02-05T09:24:15.635Z,9.63
2018-02-05T09:26:43.148Z,8.40
2018-02-05T09:29:10.677Z,10.50
2018-02-05T09:31:48.324Z,11.67
2018-02-05T09:34:15.874Z,10.93
2018-02-05T09:36:43.493Z,9.23
2018-02-05T09:39:11.109Z,9.83
2018-02-05T09:41:38.635Z,9.70
2018-02-05T09:44:06.150Z,9.57
2018-02-05T09:46:34.883Z,8.13
2018-02-05T09:49:02.465Z,10.20
2018-02-05T09:51:29.983Z,7.63
2018-02-05T09:53:57.488Z,9.37
2018-02-05T09:56:25.006Z,6.57
2018-02-05T09:58:52.516Z,9.77
2018-02-05T10:01:20.032Z,8.37
2018-02-05T10:03:47.552Z,7.03
2018-02-05T10:06:15.073Z,7.47
2018-02-05T10:08:42.589Z,7.17
2018-02-05T10:11:10.093Z,6.07
2018-02-05T10:13:37.629Z,6.93
2018-02-05T10:16:05.150Z,7.93
2018-02-05T10:18:32.679Z,6.33
2018-02-05T10:21:00.192Z,5.80
2018-02-05T10:23:27.706Z,7.00
2018-02-05T10:25:55.218Z,5.63
2018-02-05T10:28:22.725Z,7.20
2018-02-05T10:30:50.244Z,5.13
2018-02-05T10:33:17.780Z,9.30
2018-02-05T10:35:45.302Z,8.30
2018-02-05T10:38:12.849Z,6.50
2018-02-05T10:40:40.361Z,5.87
2018-02-05T10:43:07.964Z,7.50
2018-02-05T10:45:36.649Z,5.80
2018-02-05T10:48:04.191Z,7.07
2018-02-05T10:50:31.704Z,6.77
2018-02-05T10:52:59.217Z,5.60
2018-02-05T10:55:26.739Z,6.03
2018-02-05T10:57:54.250Z,4.77
2018-02-05T11:00:21.772Z,7.67
2018-02-05T11:02:49.279Z,5.73
2018-02-05T11:05:16.793Z,6.10
2018-02-05T11:07:44.329Z,6.10
2018-02-05T11:10:11.995Z,5.23
2018-02-05T11:12:39.519Z,6.33
2018-02-05T11:15:07.034Z,4.73
2018-02-05T11:17:34.551Z,6.53
2018-02-05T11:20:02.065Z,8.47
2018-02-05T11:22:29.591Z,8.10
2018-02-05T11:24:57.101Z,8.20
2018-02-05T11:27:24.621Z,6.77
2018-02-05T11:29:52.131Z,8.33
2018-02-05T11:32:19.642Z,8.47
2018-02-05T11:34:47.181Z,9.87
2018-02-05T11:37:14.701Z,4.93
2018-02-05T11:39:42.217Z,6.97
2018-02-05T11:42:09.721Z,5.87
2018-02-05T11:44:37.238Z,7.97
2018-02-05T11:47:04.746Z,5.17
2018-02-05T11:49:32.281Z,5.23
2018-02-05T11:51:59.805Z,4.73
2018-02-05T11:54:27.313Z,6.70
2018-02-05T11:56:54.829Z,7.57
2018-02-05T11:59:22.359Z,6.60
2018-02-05T12:01:49.871Z,6.60
2018-02-05T12:04:17.391Z,6.50
2018-02-05T12:06:44.896Z,6.07
2018-02-05T12:09:12.407Z,4.50
2018-02-05T12:11:39.912Z,5.70
2018-02-05T12:14:07.427Z,5.93
2018-02-05T12:16:34.933Z,5.20
2018-02-05T12:19:02.454Z,6.30
2018-02-05T12:21:30.065Z,4.97
2018-02-05T12:23:57.648Z,6.73
2018-02-05T12:26:25.201Z,4.53
2018-02-05T12:28:52.712Z,4.23
2018-02-05T12:31:20.332Z,5.80
2018-02-05T12:33:47.844Z,5.17
2018-02-05T12:36:15.375Z,5.23
2018-02-05T12:38:43.732Z,4.60
2018-02-05T12:41:11.242Z,6.70
2018-02-05T12:43:38.756Z,6.03
2018-02-05T12:46:06.261Z,4.33
2018-02-05T12:48:33.773Z,4.87
2018-02-05T12:51:01.304Z,4.00
2018-02-05T12:53:28.805Z,4.90
2018-02-05T12:55:56.304Z,5.97
2018-02-05T12:58:23.823Z,6.77
2018-02-05T13:00:55.268Z,6.23
2018-02-05T13:03:28.524Z,5.90
2018-02-05T13:06:01.684Z,7.40
2018-02-05T13:08:29.179Z,4.07
2018-02-05T13:10:56.691Z,5.67
2018-02-05T13:13:24.196Z,4.43
2018-02-05T13:15:51.768Z,5.13
2018-02-05T13:18:19.279Z,4.77
2018-02-05T13:20:46.787Z,7.00
2018-02-05T13:23:14.307Z,7.20
2018-02-05T13:25:41.892Z,5.87
2018-02-05T13:28:09.461Z,6.77
2018-02-05T13:30:36.967Z,9.67
2018-02-05T13:33:04.572Z,6.30
2018-02-05T13:35:32.140Z,5.30
2018-02-05T13:37:59.641Z,5.00
2018-02-05T13:40:27.271Z,8.03
2018-02-05T13:42:54.780Z,6.23
2018-02-05T13:45:22.324Z,4.17
2018-02-05T13:47:49.832Z,5.23
2018-02-05T13:50:17.362Z,2.70
2018-02-05T13:52:44.865Z,5.73
2018-02-05T13:55:12.363Z,4.60
2018-02-05T13:57:39.870Z,3.93
2018-02-05T14:00:07.376Z,6.80
2018-02-05T14:02:34.887Z,5.10
2018-02-05T14:05:02.420Z,5.13
2018-02-05T14:07:29.929Z,5.57
2018-02-05T14:09:57.427Z,5.80
2018-02-05T14:12:24.934Z,6.07
2018-02-05T14:14:52.443Z,6.63
2018-02-05T14:17:19.953Z,5.10
2018-02-05T14:19:47.449Z,6.93
2018-02-05T14:22:14.952Z,7.40
2018-02-05T14:24:42.457Z,4.33
2018-02-05T14:27:09.960Z,3.57
2018-02-05T14:29:37.555Z,4.47
2018-02-05T14:32:05.068Z,7.13
2018-02-05T14:34:32.578Z,6.20
2018-02-05T14:37:00.125Z,5.10
2018-02-05T14:39:27.633Z,5.13
2018-02-05T14:41:55.146Z,4.73
2018-02-05T14:44:22.695Z,6.77
2018-02-05T14:46:50.221Z,5.27
2018-02-05T14:49:17.832Z,5.70
2018-02-05T14:51:45.379Z,7.27
2018-02-05T14:54:12.932Z,5.87
2018-02-05T14:56:40.445Z,5.67
2018-02-05T14:59:08.017Z,6.07
2018-02-05T15:01:35.527Z,8.43
2018-02-05T15:04:03.053Z,4.37
2018-02-05T15:06:30.567Z,4.80
2018-02-05T15:08:58.081Z,6.63
2018-02-05T15:11:25.583Z,5.87
2018-02-05T15:13:53.085Z,7.87
2018-02-05T15:16:20.596Z,6.47
2018-02-05T15:18:48.121Z,4.77
2018-02-05T15:21:15.679Z,6.80
2018-02-05T15:23:43.165Z,5.37
2018-02-05T15:26:10.677Z,5.63
2018-02-05T15:28:38.202Z,6.53
2018-02-05T15:31:05.733Z,6.87
2018-02-05T15:33:33.245Z,5.03
2018-02-05T15:36:00.785Z,8.37
2018-02-05T15:38:28.315Z,7.60
2018-02-05T15:40:55.844Z,5.60
2018-02-05T15:43:23.736Z,6.33
2018-02-05T15:45:51.248Z,4.37
2018-02-05T15:48:18.764Z,9.80
2018-02-05T15:50:46.268Z,10.30
2018-02-05T15:53:13.780Z,8.90
2018-02-05T15:55:41.289Z,7.63
2018-02-05T15:58:08.813Z,4.77
2018-02-05T16:00:36.318Z,7.63
2018-02-05T17:25:00.948Z,14.37
2018-02-05T17:27:28.518Z,10.70
2018-02-05T17:29:56.067Z,10.03
2018-02-05T17:32:23.592Z,7.20
2018-02-05T17:34:51.102Z,7.47
2018-02-05T17:37:18.620Z,8.03
2018-02-05T17:39:46.131Z,7.07
2018-02-05T17:42:13.644Z,8.40
2018-02-05T17:44:41.219Z,8.43
2018-02-05T17:47:08.709Z,8.03
2018-02-05T17:49:36.231Z,9.90
2018-02-05T17:52:03.756Z,14.33
2018-02-05T17:54:31.303Z,10.43
2018-02-05T17:56:58.813Z,11.30
2018-02-05T17:59:26.343Z,7.77
2018-02-05T18:01:53.860Z,9.47
2018-02-05T18:04:21.379Z,9.00
2018-02-05T18:06:48.901Z,11.67
2018-02-05T18:09:16.418Z,10.77
2018-02-05T18:11:43.937Z,10.67
2018-02-05T18:14:11.450Z,8.83
2018-02-05T18:16:38.961Z,8.40
2018-02-05T18:19:06.472Z,9.33
2018-02-05T18:21:33.990Z,9.63
2018-02-05T18:24:01.508Z,9.30
2018-02-05T18:26:29.021Z,10.87
2018-02-05T18:28:56.533Z,8.77
2018-02-05T18:31:24.052Z,8.77
2018-02-05T18:33:51.572Z,13.00
2018-02-05T18:36:19.101Z,11.50
2018-02-05T18:38:46.613Z,7.80
2018-02-05T18:41:14.142Z,10.00
2018-02-05T18:43:41.651Z,9.00
2018-02-05T18:46:09.170Z,10.43
2018-02-05T18:48:36.681Z,10.77
2018-02-05T18:51:04.271Z,9.53
2018-02-05T18:53:31.938Z,8.87
2018-02-05T18:55:59.597Z,12.03
2018-02-05T18:58:27.236Z,10.20
2018-02-05T19:00:54.804Z,9.50
2018-02-05T19:03:22.393Z,9.43
2018-02-05T19:05:50.740Z,11.37
2018-02-05T19:08:18.329Z,8.40
2018-02-05T19:10:45.883Z,11.27
2018-02-05T19:13:13.417Z,10.03
2018-02-05T19:15:40.929Z,12.60
2018-02-05T19:18:08.471Z,11.37
2018-02-05T19:20:36.098Z,9.93
2018-02-05T19:23:03.745Z,13.93
2018-02-05T19:25:31.483Z,15.27
2018-02-05T19:27:59.185Z,13.43
2018-02-05T19:30:26.773Z,12.83
2018-02-05T19:32:55.321Z,13.17
2018-02-05T19:35:22.876Z,11.27
2018-02-05T19:37:50.400Z,13.83
2018-02-05T19:40:17.937Z,13.13
2018-02-05T19:42:45.527Z,12.00
2018-02-05T19:45:13.058Z,14.00
2018-02-05T19:47:40.584Z,13.80
2018-02-05T19:50:08.118Z,17.10
2018-02-05T19:52:35.653Z,13.87
2018-02-05T19:55:03.184Z,13.33
2018-02-05T19:57:30.723Z,15.17
2018-02-05T19:59:58.248Z,16.47
2018-02-05T20:02:25.756Z,13.40
2018-02-05T20:04:53.276Z,11.03
2018-02-05T20:07:20.809Z,12.67
2018-02-05T20:09:48.363Z,14.67
2018-02-05T20:12:15.908Z,14.60
2018-02-05T20:14:43.423Z,16.10
2018-02-05T20:17:10.973Z,13.93
2018-02-05T20:19:38.507Z,12.33
2018-02-05T20:22:06.043Z,12.03
2018-02-05T20:24:33.726Z,13.43
2018-02-05T20:27:01.374Z,12.63
2018-02-05T20:29:28.952Z,12.67
2018-02-05T20:31:56.508Z,15.07
2018-02-05T20:34:24.072Z,13.57
2018-02-05T20:36:51.604Z,14.70
2018-02-05T20:39:19.119Z,16.70
2018-02-05T20:41:46.713Z,15.47
2018-02-05T20:44:14.284Z,16.57
2018-02-05T20:46:41.839Z,13.43
2018-02-05T20:49:09.370Z,12.43
2018-02-05T20:51:36.896Z,15.33
2018-02-05T20:54:04.416Z,14.33
2018-02-05T20:56:31.953Z,15.00
2018-02-05T20:58:59.476Z,15.63
2018-02-05T21:01:27.009Z,18.90
2018-02-05T21:03:54.560Z,15.40
2018-02-05T21:06:22.112Z,16.97
2018-02-05T21:08:49.655Z,22.60
2018-02-05T21:11:17.191Z,13.30
2018-02-05T21:13:44.762Z,14.40
2018-02-05T21:16:12.272Z,18.43
2018-02-05T21:18:39.793Z,20.73
2018-02-05T21:21:07.309Z,19.43
2018-02-05T21:23:34.840Z,14.60
2018-02-05T21:26:02.396Z,16.10
2018-02-05T21:28:29.970Z,15.50
2018-02-05T21:30:57.547Z,16.77
2018-02-05T21:33:25.115Z,19.07
2018-02-05T21:35:52.656Z,18.13
2018-02-05T21:38:20.175Z,16.50
2018-02-05T21:40:47.684Z,19.40
2018-02-05T21:43:15.225Z,16.43
2018-02-05T21:45:42.749Z,16.23
2018-02-05T21:48:10.260Z,18.83
2018-02-05T21:50:37.803Z,19.00
2018-02-05T21:53:05.340Z,19.63
2018-02-05T21:55:32.878Z,15.13
2018-02-05T21:58:01.629Z,17.40
2018-02-05T22:00:29.221Z,19.10
2018-02-05T22:02:56.750Z,17.87
2018-02-05T22:05:24.282Z,18.77
2018-02-05T22:07:51.801Z,17.50
2018-02-05T22:10:19.351Z,15.83
2018-02-05T22:12:46.901Z,16.23
2018-02-05T22:15:14.441Z,15.27
2018-02-05T22:17:41.995Z,16.50
2018-02-05T22:20:09.562Z,15.37
2018-02-05T22:22:37.104Z,12.27
2018-02-05T22:25:04.626Z,13.97
2018-02-05T22:27:32.152Z,14.03
2018-02-05T22:30:00.638Z,14.30
2018-02-05T22:32:28.155Z,13.40
2018-02-05T22:34:55.693Z,16.43
2018-02-05T22:37:23.234Z,15.20
2018-02-05T22:39:50.775Z,15.30
2018-02-05T22:42:18.316Z,17.20
2018-02-05T22:44:46.812Z,12.37
2018-02-05T22:47:14.445Z,14.90
2018-02-05T22:49:42.128Z,14.70
2018-02-05T22:52:09.684Z,14.90
2018-02-05T22:54:37.360Z,13.30
2018-02-05T22:57:05.093Z,16.23
2018-02-05T22:59:32.901Z,14.47
2018-02-05T23:02:00.604Z,14.83
2018-02-05T23:04:28.165Z,16.03
2018-02-05T23:06:55.790Z,18.87
2018-02-05T23:09:23.351Z,14.63
2018-02-05T23:11:50.870Z,17.67
2018-02-05T23:14:18.412Z,18.33
2018-02-05T23:16:45.953Z,17.10
2018-02-05T23:19:13.540Z,18.70
2018-02-05T23:21:41.214Z,18.13
2018-02-05T23:24:08.935Z,20.43
2018-02-05T23:26:36.509Z,19.60
2018-02-05T23:29:04.172Z,18.77
2018-02-05T23:31:31.840Z,19.53
2018-02-05T23:33:59.504Z,21.80
2018-02-05T23:36:27.097Z,19.07
2018-02-05T23:38:54.638Z,16.17
2018-02-05T23:41:22.164Z,18.90
2018-02-05T23:43:49.734Z,17.37
2018-02-05T23:46:17.241Z,17.10
2018-02-05T23:48:44.762Z,18.10
2018-02-05T23:51:12.289Z,19.50
2018-02-05T23:53:39.922Z,17.70
2018-02-05T23:56:07.468Z,18.70
2018-02-05T23:58:35.041Z,17.47
